METAR Data
IDs: Format: Raw Decoded Include TAF

Data at: 1800 UTC 26 Sep 2021

METAR for:KHYW (Conway/Horry Cnty, SC, US)
Text:KHYW 261755Z AUTO 01006KT 10SM CLR 26/12 A3010 RMK AO2
Temperature: 26.0°C ( 79°F)
Dewpoint: 12.0°C ( 54°F) [RH = 42%]
Pressure (altimeter):30.10 inches Hg (1019.4 mb)
Winds:from the N (10 degrees) at 7 MPH (6 knots; 3.1 m/s)
Visibility:10 or more sm (16+ km)
Ceiling:at least 12,000 feet AGL
Clouds:sky clear below 12,000 feet AGL
QC Flag:automated observation with no human augmentation

TAF for:KHYW (Conway/Horry Cnty, SC, US)
Text:No data found